Portada
METAR-TAF:

METAR-TAF

Aeropuertos :

Tanabe, Japón

latitud: 33-44N, longitud: 135-23E, altitud: 105 m

Observación

El informe se hizo hace 50 minutos, a las 00:00 UTC
Viento 3 kt del norte-noreste, variando entre noroeste y este-noreste
Temperatura 15°C
Humedad 82%
Presión 1018 hPa
Visibilidad 10 km o más
Escasas nubes a una altura de 900 ft
Nubes dispersas a una altura de 5000 ft
Cielo nuboso a una altura de 7000 ft
lluvia ligera

METAR: RJBD 310000Z 02003KT 320V070 9999 -RA FEW009 SCT050 BKN070 15/12 Q1018

Hora: 09:50 (00:50 UTC)


TAF: falta

Observaciones y pronósticos meteorológicos de más de 4000 aeropuertos (mensajes METAR y TAF).

Los puntos amarillos y rojos representan las estaciones disponibles.

Ponga el ratón en el punto deseado para ver el nombre de la estación.

Haga clic para ver las observaciones y los pronósticos meteorológicos.

Para cambiar el mapa : haga clic en los botones verdes con una cruz de color negro para hacer un zoom, en el botón verde con un guión para alejar o en las flechas verdes para mapas adyacentes.


METAR-TAF: